Terminal Aerodrome Forecast
Issued by NWS

Home | Current Version | Previous Version | Text Only | Print | Product List | Glossary On
Versions: 1 2 3 4 5 6 7 8 9 10 11 12 13
859
FTPA31 PHFO 221700
TAFLIH
TAF
PHLI 221728Z 2218/2318 28005KT P6SM SCT050
     FM221900 03011KT P6SM FEW030 SCT050
     FM230500 01011KT P6SM VCSH SCT025 BKN045=

USA.gov is the U.S. government's official web portal to all federal, state and local government web resources and services.